Frank, North Carolina
Current Conditions -  °F | °C
As of 8:55 AM on Saturday 25 Oct 2014 (Local Time) from KTNB Reporting Station
Clear Clear  
Wind Chill: 43°   Ceiling: Unl
Heat Index: 47°   Visibility: 10mi
Dew Point: 34°   Wind: 10mph
Humidity: 60%   Direction: 290°WNW
Pressure: 30.09"   Gusts: 17mph
Location:  36.0227°N, 81.9499°W
Report Text: KTNB 251255Z AUTO 29009G15KT 260V320 10SM CLR 09/01 A3009 RMK AO2 T00850012
Loading
Personal Weather Stations






























Interactive Weather Map
Tropical Storm Tracking
New forecast layout! Learn more

10-Day Weather Forecast

Advertisements
Track Severe Weather on mobile